• Join FlightAware (Why Join?)
  • Login
  • US Flag 
12:11AM EDT


 

Airport Tracker/Info


-or-


 

Live Flight TrackerFlight Track Log ✈ ASQ5025 ✈ 04-May-2013 ✈ KLGA - KMKE

Flight Track Log - Related Links

Times and Time Zones

All times are in EDT time to prevent confusion due to time zone crossing. See the ASQ5025 flight status page for this flight to view local times or setup timezone preferences in your user account.

Time Position Orientation Groundspeed Altitude Reporting Facility
EDT Latitude Longitude Course Direction KTS MPH feet Rate Location/Type
10:29AM 40.7500 -73.8167 49° Northeast 158 182 2,300  Level New York TRACON
10:30AM 40.7833 -73.7667 49° Northeast 207 238 4,500 2,400 Climbing New York TRACON
10:31AM 40.8333 -73.7833 346° North 251 289 7,100 2,340 Climbing New York TRACON
10:33AM 40.9311 -73.9625 306° West 293 337 11,800 2,160 Climbing New York Center
10:34AM 40.9842 -74.0778 301° West 319 367 13,900 1,620 Climbing New York Center
10:35AM 41.0333 -74.1792 303° West 348 400 15,100 1,200 Climbing New York Center
10:36AM 41.0703 -74.3353 287° West 385 443 16,400 1,680 Climbing New York Center
10:37AM 41.0972 -74.4797 284° West 408 470 18,500 2,100 Climbing New York Center
10:38AM 41.1200 -74.6078 283° West 408 470 20,600 2,280 Climbing New York Center
10:39AM 41.1533 -74.7364 289° West 391 450 23,000 1,980 Climbing New York Center
10:40AM 41.2056 -74.8525 301° West 372 428 24,700 1,500 Climbing New York Center
10:41AM 41.2614 -74.9856 299° West 372 428 26,100 1,320 Climbing New York Center
10:42AM 41.3172 -75.1133 300° West 392 451 27,400 1,260 Climbing New York Center
10:43AM 41.3708 -75.2383 300° West 398 458 28,700 1,140 Climbing New York Center
10:44AM 41.4264 -75.3667 300° West 398 458 29,700 960 Climbing New York Center
10:45AM 41.4794 -75.4975 298° West 404 465 30,700 900 Climbing New York Center
10:46AM 41.5214 -75.6419 291° West 409 471 31,500 780 Climbing New York Center
10:47AM 41.5597 -75.7750 291° West 422 486 32,300 900 Climbing New York Center
10:48AM 41.6014 -75.9194 291° West 422 486 33,300 960 Climbing New York Center
10:49AM 41.6428 -76.0672 291° West 422 486 34,300 960 Climbing New York Center
10:50AM 41.6864 -76.2094 292° West 422 486 35,300 840 Climbing New York Center
10:51AM 41.7253 -76.3572 289° West 422 486 36,100 540 Climbing New York Center
10:54AM 41.8264 -76.7261 290° West 408 470 37,300 480 Climbing Cleveland Center
10:55AM 41.8667 -76.8744 290° West 416 479 37,900 300 Climbing Cleveland Center
10:56AM 41.9092 -77.0256 291° West 421 484 38,000  Climbing Cleveland Center
10:57AM 41.9492 -77.1797 289° West 426 490 38,000  Level Cleveland Center
10:58AM 41.9911 -77.3311 290° West 431 496 38,000  Level Cleveland Center
10:59AM 42.0331 -77.4856 290° West 436 502 38,000  Level Cleveland Center
11:00AM 42.0725 -77.6431 289° West 441 507 38,000  Level Cleveland Center
11:01AM 42.1139 -77.7981 290° West 441 507 38,000  Level Cleveland Center
11:02AM 42.1572 -77.9558 290° West 441 507 38,000  Level Cleveland Center
11:03AM 42.1961 -78.1083 289° West 436 502 38,000  Level Cleveland Center
11:04AM 42.2367 -78.2639 289° West 436 502 38,000  Level Cleveland Center
11:05AM 42.2772 -78.4194 289° West 436 502 38,000  Level Cleveland Center
11:06AM 42.3156 -78.5756 288° West 436 502 38,000  Level Cleveland Center
11:07AM 42.3558 -78.7317 289° West 436 502 38,000  Level Cleveland Center
11:08AM 42.3936 -78.8878 288° West 436 502 38,000  Level Cleveland Center
11:09AM 42.4378 -79.0583 289° West 445 512 38,000  Level Cleveland Center
11:10AM 42.4728 -79.1983 289° West 440 506 38,000  Level Cleveland Center
11:11AM 42.4956 -79.3639 281° West 434 499 38,000  Level Cleveland Center
11:12AM 42.5053 -79.5269 275° West 434 499 38,000  Level Cleveland Center
11:13AM 42.5131 -79.6875 274° West 434 499 38,000  Level Cleveland Center
11:14AM 42.5206 -79.8536 274° West 439 505 38,000  Level Cleveland Center
11:15AM 42.5256 -80.0339 272° West 439 505 38,000  Level Cleveland Center
11:16AM 42.5347 -80.1972 274° West 447 514 38,000  Level Cleveland Center
11:17AM 42.5414 -80.3661 273° West 441 507 38,000  Level Cleveland Center
11:18AM 42.5456 -80.5269 272° West 436 502 38,000  Level Cleveland Center
11:19AM 42.5519 -80.6931 273° West 443 510 38,000  Level Cleveland Center
11:20AM 42.5600 -80.8397 274° West 443 510 38,000  Level Cleveland Center
11:21AM 42.5658 -81.0061 273° West 443 510 38,000  Level Cleveland Center
11:22AM 42.5692 -81.1697 272° West 443 510 38,000  Level Cleveland Center
11:23AM 42.5764 -81.3358 273° West 443 510 38,000  Level Cleveland Center
11:24AM 42.5919 -81.5025 277° West 444 511 38,000  Level Cleveland Center
11:25AM 42.6219 -81.6611 284° West 438 504 38,000  Level Cleveland Center
11:26AM 42.6514 -81.8422 283° West 438 504 38,000  Level Cleveland Center
11:27AM 42.6786 -82.0067 283° West 443 510 38,000  Level Cleveland Center
11:28AM 42.7078 -82.1683 284° West 443 510 38,000  Level Cleveland Center
11:29AM 42.7367 -82.3358 283° West 453 521 38,000  Level Cleveland Center
11:30AM 42.7653 -82.5033 283° West 453 521 38,000  Level Cleveland Center
11:31AM 42.7936 -82.6683 283° West 453 521 38,000  Level Cleveland Center
11:32AM 42.8194 -82.8392 282° West 453 521 38,000  Level Cleveland Center
11:33AM 42.8494 -83.0072 284° West 453 521 38,000  Level Cleveland Center
11:34AM 42.8750 -83.1756 282° West 453 521 38,000  Level Cleveland Center
11:35AM 42.9022 -83.3467 282° West 453 521 38,000  Level Cleveland Center
11:36AM 42.9314 -83.5181 283° West 453 521 38,000  Level Cleveland Center
11:37AM 42.9561 -83.6897 281° West 453 521 38,000  Level Cleveland Center
11:38AM 42.9783 -83.8611 280° West 453 521 38,000  Level Cleveland Center
11:39AM 42.9919 -84.0378 276° West 459 528 38,000  Level Cleveland Center
11:40AM 43.0097 -84.2119 278° West 470 541 38,000  Level Cleveland Center
11:41AM 43.0381 -84.4928 278° West 469 540 38,000  Level Chicago Center
11:42AM 43.0539 -84.6683 277° West 468 539 38,000  Level Chicago Center
11:43AM 43.0694 -84.8447 277° West 470 541 38,000  Level Chicago Center
11:44AM 43.0850 -85.0203 277° West 469 540 38,000  Level Chicago Center
11:45AM 43.1006 -85.1975 277° West 470 541 38,000  Level Chicago Center
11:46AM 43.1156 -85.3742 277° West 470 541 38,000  Level Chicago Center
11:47AM 43.1303 -85.5517 277° West 471 542 38,000  Level Chicago Center
11:49AM 43.1481 -85.7639 277° West 472 543 38,000 -60 Level Chicago Center
11:50AM 43.1625 -85.9403 276° West 478 550 37,900 -1,260 Descending Chicago Center
11:51AM 43.1697 -86.1211 273° West 490 564 35,500 -3,120 Descending Chicago Center
11:52AM 43.1661 -86.3042 269° West 491 565 31,600 -4,440 Descending Chicago Center
11:53AM 43.1617 -86.5150 268° West 469 540 26,400 -4,440 Descending Chicago Center
11:54AM 43.1592 -86.6856 269° West 456 525 22,500 -3,960 Descending Chicago Center
11:55AM 43.1556 -86.8522 268° West 448 516 18,400 -3,900 Descending Chicago Center
11:56AM 43.1511 -87.0136 268° West 433 498 14,500 -2,340 Descending Chicago Center
11:57AM 43.1475 -87.1603 268° West 391 450 13,700 -900 Descending Chicago Center
11:58AM 43.1431 -87.3089 268° West 392 451 12,700 -1,200 Descending Chicago Center
11:59AM 43.1436 -87.4836 270° West 392 451 11,300 -1,320 Descending Chicago Center
12:00PM 43.1258 -87.6314 261° West 395 455 10,000 -840 Descending Chicago Center
12:01PM 43.0964 -87.7539 252° West 328 377 9,600 -1,140 Descending Chicago Center
12:02PM 43.0733 -87.8611 254° West 296 341 7,700 -1,980 Descending Chicago Center
12:02PM 43.0667 -87.9167 261° West 289 333 6,800 -1,440 Descending KMKE
12:03PM 43.0333 -88.0000 241° Southwest 254 292 5,700 -1,260 Descending KMKE
12:04PM 43.0000 -88.0833 241° Southwest 246 283 4,300 -1,320 Descending KMKE
12:05PM 42.9500 -88.0667 166° South 195 224 3,100 -1,080 Descending KMKE
12:06PM 42.9167 -88.0167 132° Southeast 144 166 2,200 -780 Descending KMKE
12:08PM 42.9333 -87.9500 71° East 128 147 1,300 -660 Descending KMKE
12:10PM 42.9469 -87.8971 154° Southeast  Level Estimated
12:17PM 42.9469 -87.8971 154° Southeast  Level Estimated